Time;durP1;ratioP1;P1;durP2;ratioP2;P2;SDS_P1;SDS_P2;PMS_P1;PMS_P2;Temp;Humidity;BMP_temperature;BMP_pressure;BME280_temperature;BME280_humidity;BME280_pressure;Samples;Min_cycle;Max_cycle;Signal;HPM_P1;HPM_P2
2022/03/13 00:01:03;;;;;;;9.77;5.88;;;7.60;46.20;;;;;;4900807;29;20032;-86
2022/03/13 00:03:32;;;;;;;9.18;5.57;;;7.60;46.30;;;;;;4882535;29;20052;-87
2022/03/13 00:05:59;;;;;;;9.70;5.68;;;7.60;46.30;;;;;;4903190;29;20040;-88
2022/03/13 00:08:33;;;;;;;8.90;6.15;;;7.60;46.30;;;;;;4883169;29;20044;-88
2022/03/13 00:11:07;;;;;;;7.80;5.55;;;7.60;46.30;;;;;;4900633;28;20096;-88
2022/03/13 00:13:36;;;;;;;7.83;5.40;;;7.60;46.30;;;;;;4914784;28;20043;-88
2022/03/13 00:16:09;;;;;;;8.13;5.80;;;7.60;46.30;;;;;;4905113;29;20043;-86
2022/03/13 00:18:44;;;;;;;7.35;4.97;;;7.60;46.20;;;;;;4884131;29;20044;-88
2022/03/13 00:21:10;;;;;;;7.78;6.07;;;7.60;46.20;;;;;;4883846;29;20036;-89
2022/03/13 00:23:36;;;;;;;7.38;5.55;;;7.60;46.20;;;;;;4915171;29;20042;-90
2022/03/13 00:26:04;;;;;;;8.15;5.45;;;7.60;46.20;;;;;;4886049;29;20112;-90
2022/03/13 00:28:30;;;;;;;7.28;5.07;;;7.60;46.10;;;;;;4882699;29;20045;-90
2022/03/13 00:31:01;;;;;;;8.10;5.20;;;7.60;46.20;;;;;;4898570;28;20492;-91
2022/03/13 00:33:28;;;;;;;6.60;5.18;;;7.60;46.10;;;;;;4899154;29;20040;-88
2022/03/13 00:35:54;;;;;;;6.78;5.03;;;7.50;46.10;;;;;;4901169;29;20044;-89
2022/03/13 00:38:19;;;;;;;6.65;5.32;;;7.60;46.10;;;;;;4899949;29;20043;-91
2022/03/13 00:40:51;;;;;;;7.38;5.65;;;7.50;46.10;;;;;;4893267;29;20428;-84
2022/03/13 00:43:22;;;;;;;7.68;5.45;;;7.60;46.10;;;;;;4944106;28;20127;-90
2022/03/13 00:45:49;;;;;;;7.10;5.55;;;7.50;46.20;;;;;;4936597;29;20546;-88
2022/03/13 00:48:16;;;;;;;7.55;5.30;;;7.50;46.10;;;;;;4919733;29;20051;-91
2022/03/13 00:50:42;;;;;;;9.10;5.40;;;7.60;46.10;;;;;;4882337;29;20036;-87
2022/03/13 00:53:08;;;;;;;6.93;5.47;;;7.50;46.10;;;;;;4931294;28;20412;-87
2022/03/13 00:55:34;;;;;;;8.20;5.15;;;7.50;46.00;;;;;;4899818;29;20074;-85
2022/03/13 00:58:00;;;;;;;8.20;5.47;;;7.60;46.10;;;;;;4900353;28;20048;-87
2022/03/13 01:00:27;;;;;;;7.10;5.05;;;7.60;46.00;;;;;;4885371;29;20123;-87
2022/03/13 01:02:53;;;;;;;6.47;5.00;;;7.60;46.00;;;;;;4900592;28;20048;-88
2022/03/13 01:05:24;;;;;;;7.07;5.25;;;7.50;46.00;;;;;;4930880;29;20162;-88
2022/03/13 01:07:52;;;;;;;8.07;5.10;;;7.50;46.00;;;;;;4899024;28;20536;-85
2022/03/13 01:10:18;;;;;;;8.70;5.22;;;7.60;46.00;;;;;;4914163;28;20054;-89
2022/03/13 01:12:46;;;;;;;7.80;5.80;;;7.60;46.00;;;;;;4901174;29;20503;-88
2022/03/13 01:15:12;;;;;;;7.80;5.80;;;7.60;46.00;;;;;;4899844;28;20135;-87
2022/03/13 01:17:38;;;;;;;6.40;5.07;;;7.60;45.90;;;;;;4902691;29;20143;-88
2022/03/13 01:20:06;;;;;;;7.63;5.05;;;7.60;45.90;;;;;;4901875;29;20037;-88
2022/03/13 01:22:32;;;;;;;6.78;5.22;;;7.60;45.90;;;;;;4859465;29;20100;-87
2022/03/13 01:24:58;;;;;;;7.53;5.43;;;7.60;45.90;;;;;;4902423;28;20050;-87
2022/03/13 01:27:24;;;;;;;8.48;5.28;;;7.60;45.80;;;;;;4916205;29;20048;-86
2022/03/13 01:29:50;;;;;;;7.00;4.90;;;7.60;45.80;;;;;;4902828;28;20040;-85
2022/03/13 01:32:17;;;;;;;8.52;5.78;;;7.60;45.90;;;;;;4886532;29;20091;-86
2022/03/13 01:34:45;;;;;;;10.00;5.72;;;7.60;45.90;;;;;;4886053;29;20515;-86
2022/03/13 01:37:34;;;;;;;7.68;5.45;;;7.60;46.00;;;;;;4902147;28;20673;-86
2022/03/13 01:40:08;;;;;;;6.45;5.20;;;7.60;45.90;;;;;;4908407;28;20041;-84
2022/03/13 01:42:34;;;;;;;7.10;5.72;;;7.60;45.90;;;;;;4931538;29;20032;-84
2022/03/13 01:45:00;;;;;;;8.13;5.53;;;7.60;45.80;;;;;;4914662;28;20474;-89
2022/03/13 01:47:26;;;;;;;8.63;5.50;;;7.60;45.80;;;;;;4894606;29;20124;-87
2022/03/13 01:49:52;;;;;;;7.13;5.65;;;7.60;45.80;;;;;;4898175;29;20036;-91
2022/03/13 01:52:25;;;;;;;8.43;5.78;;;7.60;45.80;;;;;;4922547;28;20048;-91
2022/03/13 01:54:51;;;;;;;7.13;5.32;;;7.60;45.80;;;;;;4904780;29;20484;-91
2022/03/13 01:57:19;;;;;;;8.75;5.95;;;7.60;45.90;;;;;;4918882;29;20040;-87
2022/03/13 01:59:59;;;;;;;6.03;4.82;;;7.60;45.90;;;;;;4906629;29;20051;-86
2022/03/13 02:02:28;;;;;;;7.80;5.10;;;7.60;46.00;;;;;;4893038;29;20057;-86
2022/03/13 02:04:56;;;;;;;7.85;5.22;;;7.60;46.00;;;;;;4913374;29;20036;-88
2022/03/13 02:07:25;;;;;;;6.95;5.38;;;7.60;46.10;;;;;;4901427;29;20072;-86
2022/03/13 02:09:51;;;;;;;6.63;5.00;;;7.60;46.10;;;;;;4917065;29;20127;-88
2022/03/13 02:12:20;;;;;;;6.60;4.85;;;7.60;46.10;;;;;;4917372;29;20040;-91
2022/03/13 02:14:49;;;;;;;5.10;4.20;;;7.60;46.10;;;;;;4933830;28;20044;-90
2022/03/13 02:17:28;;;;;;;6.20;4.32;;;7.60;46.20;;;;;;4874550;29;20040;-90
2022/03/13 02:19:55;;;;;;;5.57;4.30;;;7.60;46.30;;;;;;4901431;29;20158;-88
2022/03/13 02:22:21;;;;;;;4.93;3.75;;;7.60;46.30;;;;;;4916343;29;20456;-87
2022/03/13 02:24:51;;;;;;;5.75;4.30;;;7.60;46.30;;;;;;4889893;29;20493;-88
2022/03/13 02:27:23;;;;;;;4.97;3.90;;;7.60;46.30;;;;;;4877937;29;20083;-88
2022/03/13 02:29:54;;;;;;;5.07;4.07;;;7.60;46.30;;;;;;4917847;29;20032;-88
2022/03/13 02:32:20;;;;;;;4.65;3.70;;;7.60;46.30;;;;;;4916220;29;20036;-89
2022/03/13 02:34:47;;;;;;;5.88;3.88;;;7.60;46.30;;;;;;4932627;29;20088;-86
2022/03/13 02:37:41;;;;;;;4.82;3.55;;;7.60;46.40;;;;;;4902093;29;20064;-89
2022/03/13 02:40:15;;;;;;;5.20;3.97;;;7.60;46.40;;;;;;4870528;29;20044;-88
2022/03/13 02:42:41;;;;;;;4.22;3.33;;;7.60;46.50;;;;;;4909057;29;20088;-88
2022/03/13 02:45:08;;;;;;;4.72;3.60;;;7.60;46.50;;;;;;4891598;29;20040;-89
2022/03/13 02:47:34;;;;;;;4.07;3.03;;;7.60;46.50;;;;;;4940267;29;20389;-88
2022/03/13 02:50:00;;;;;;;4.07;3.17;;;7.60;46.50;;;;;;4891268;29;20127;-88
2022/03/13 02:52:26;;;;;;;4.68;3.13;;;7.60;46.60;;;;;;4902126;29;20127;-87
2022/03/13 02:54:51;;;;;;;3.60;2.83;;;7.60;46.70;;;;;;4903357;29;20045;-87
2022/03/13 02:57:17;;;;;;;4.75;2.95;;;7.60;46.70;;;;;;4901614;29;20083;-88
2022/03/13 02:59:43;;;;;;;4.07;2.85;;;7.70;46.90;;;;;;4915617;29;20037;-85
2022/03/13 03:02:09;;;;;;;3.20;2.90;;;7.70;46.90;;;;;;4884736;29;20032;-89
2022/03/13 03:04:35;;;;;;;2.58;2.38;;;7.60;46.90;;;;;;4931525;28;20535;-90
2022/03/13 03:07:04;;;;;;;3.90;2.40;;;7.70;46.90;;;;;;4901158;29;20036;-90
2022/03/13 03:09:31;;;;;;;2.85;2.22;;;7.60;46.90;;;;;;4890049;29;20407;-89
2022/03/13 03:12:00;;;;;;;3.45;2.45;;;7.70;46.90;;;;;;4887633;29;20039;-89
2022/03/13 03:14:28;;;;;;;2.75;2.30;;;7.60;46.90;;;;;;4891825;29;20064;-86
2022/03/13 03:16:54;;;;;;;2.47;2.10;;;7.70;47.00;;;;;;4907882;28;20519;-92
2022/03/13 03:19:21;;;;;;;2.20;1.80;;;7.70;47.00;;;;;;4903211;29;20479;-92
2022/03/13 03:21:47;;;;;;;3.35;2.15;;;7.70;47.00;;;;;;4900897;29;20123;-85
2022/03/13 03:24:17;;;;;;;2.55;2.28;;;7.60;47.10;;;;;;4883880;29;20044;-87
2022/03/13 03:26:43;;;;;;;2.30;2.10;;;7.70;47.80;;;;;;4901597;28;20097;-86
2022/03/13 03:29:09;;;;;;;1.95;1.85;;;7.70;47.30;;;;;;4901971;28;20051;-89
2022/03/13 03:31:49;;;;;;;2.40;2.17;;;7.70;47.30;;;;;;4901454;29;20128;-91
2022/03/13 03:34:18;;;;;;;3.08;2.05;;;7.70;47.20;;;;;;4918258;28;20043;-94
2022/03/13 03:36:48;;;;;;;1.80;1.70;;;7.70;47.10;;;;;;4931270;29;20041;-89
2022/03/13 03:39:16;;;;;;;1.80;1.58;;;7.70;47.20;;;;;;4874444;29;20044;-90
2022/03/13 03:41:44;;;;;;;2.15;1.88;;;7.70;47.10;;;;;;4900807;29;20110;-86
2022/03/13 03:44:11;;;;;;;2.35;2.13;;;7.70;47.00;;;;;;4914985;29;20040;-90
2022/03/13 03:46:38;;;;;;;2.20;2.00;;;7.70;47.00;;;;;;4915893;29;20045;-89
2022/03/13 03:49:04;;;;;;;1.83;1.67;;;7.70;46.90;;;;;;4901632;29;20048;-87
2022/03/13 03:51:31;;;;;;;2.22;1.90;;;7.60;46.70;;;;;;4907066;29;20108;-89
2022/03/13 03:53:57;;;;;;;2.20;2.00;;;7.70;46.80;;;;;;4903200;29;20548;-89
2022/03/13 03:56:23;;;;;;;2.10;1.90;;;7.70;47.00;;;;;;4886119;29;20047;-87
2022/03/13 03:58:49;;;;;;;2.20;1.85;;;7.70;47.10;;;;;;4913315;29;20535;-89
2022/03/13 04:01:16;;;;;;;2.35;1.80;;;7.70;47.00;;;;;;4882908;29;20128;-88
2022/03/13 04:03:42;;;;;;;2.25;2.03;;;7.70;47.00;;;;;;4896519;29;20062;-88
2022/03/13 04:06:08;;;;;;;2.10;1.90;;;7.70;47.00;;;;;;4891549;29;20040;-88
2022/03/13 04:08:34;;;;;;;1.67;1.58;;;7.70;46.90;;;;;;4889337;29;20048;-87
2022/03/13 04:11:01;;;;;;;2.92;1.90;;;7.70;47.00;;;;;;4927343;28;20048;-89
2022/03/13 04:13:28;;;;;;;1.98;1.77;;;7.70;46.90;;;;;;4896733;29;20040;-89
2022/03/13 04:15:57;;;;;;;3.83;1.95;;;7.70;46.80;;;;;;4902541;29;20036;-92
2022/03/13 04:18:23;;;;;;;1.90;1.80;;;7.70;46.80;;;;;;4901159;29;20096;-87
2022/03/13 04:20:49;;;;;;;2.00;1.80;;;7.70;46.70;;;;;;4915669;29;20072;-87
2022/03/13 04:23:15;;;;;;;1.90;1.70;;;7.70;46.80;;;;;;4898192;29;20044;-81
2022/03/13 04:25:41;;;;;;;2.10;1.90;;;7.70;46.80;;;;;;4915011;29;20044;-83
2022/03/13 04:28:10;;;;;;;2.33;1.75;;;7.70;46.90;;;;;;4899901;29;20097;-83
2022/03/13 04:30:40;;;;;;;2.10;1.90;;;7.70;47.00;;;;;;4898820;29;20029;-84
2022/03/13 04:33:06;;;;;;;2.40;1.48;;;7.70;47.10;;;;;;4897751;29;20045;-82
2022/03/13 04:35:33;;;;;;;2.50;1.70;;;7.70;47.00;;;;;;4897264;29;20453;-84
2022/03/13 04:37:59;;;;;;;1.65;1.52;;;7.70;47.10;;;;;;4881345;29;20443;-85
2022/03/13 04:40:25;;;;;;;1.60;1.50;;;7.70;47.30;;;;;;4897809;29;20092;-84
2022/03/13 04:42:51;;;;;;;1.30;1.20;;;7.70;47.40;;;;;;4921102;29;20044;-83
2022/03/13 04:45:18;;;;;;;1.58;1.48;;;7.70;47.40;;;;;;4897204;29;20051;-83
2022/03/13 04:47:45;;;;;;;2.70;1.85;;;7.70;47.50;;;;;;4911241;29;20044;-82
2022/03/13 04:50:11;;;;;;;2.28;1.75;;;7.70;47.60;;;;;;4922455;29;20127;-84
2022/03/13 04:52:37;;;;;;;2.03;1.80;;;7.70;47.60;;;;;;4908116;29;20091;-85
2022/03/13 04:55:05;;;;;;;1.73;1.63;;;7.80;47.60;;;;;;4930050;28;20037;-83
2022/03/13 04:57:31;;;;;;;2.28;1.70;;;7.70;47.40;;;;;;4905123;29;20040;-86
2022/03/13 04:59:57;;;;;;;1.60;1.50;;;7.70;47.20;;;;;;4918788;29;20067;-86
2022/03/13 05:02:23;;;;;;;2.70;1.55;;;7.70;47.10;;;;;;4901630;29;20524;-85
2022/03/13 05:04:49;;;;;;;2.25;1.60;;;7.70;46.90;;;;;;4903692;29;20083;-88
2022/03/13 05:07:17;;;;;;;1.60;1.50;;;7.70;46.90;;;;;;4887860;28;20412;-86
2022/03/13 05:09:43;;;;;;;1.80;1.70;;;7.70;46.80;;;;;;4909313;29;20038;-80
2022/03/13 05:12:10;;;;;;;2.13;1.40;;;7.70;46.70;;;;;;4903978;29;20033;-85
2022/03/13 05:14:36;;;;;;;1.60;1.50;;;7.70;46.70;;;;;;4906194;29;20071;-86
2022/03/13 05:17:03;;;;;;;1.50;1.40;;;7.80;46.70;;;;;;4892474;29;20135;-85
2022/03/13 05:19:29;;;;;;;1.67;1.58;;;7.80;47.30;;;;;;4915068;29;20032;-87
2022/03/13 05:21:55;;;;;;;2.08;1.75;;;7.80;46.80;;;;;;4901566;29;20092;-90
2022/03/13 05:24:21;;;;;;;1.90;1.70;;;7.80;46.80;;;;;;4914661;29;20484;-90
2022/03/13 05:26:47;;;;;;;3.03;1.98;;;7.70;46.80;;;;;;4881566;29;20047;-91
2022/03/13 05:29:13;;;;;;;2.42;1.60;;;7.80;46.90;;;;;;4898586;29;20140;-85
2022/03/13 05:31:40;;;;;;;2.10;1.90;;;7.70;46.90;;;;;;4898666;29;20044;-85
2022/03/13 05:34:07;;;;;;;3.10;2.00;;;7.80;47.10;;;;;;4902317;29;20040;-85
2022/03/13 05:36:33;;;;;;;2.85;1.77;;;7.70;47.20;;;;;;4934416;29;20139;-82
2022/03/13 05:38:59;;;;;;;3.20;2.20;;;7.80;47.20;;;;;;4899951;29;20071;-85
2022/03/13 05:41:26;;;;;;;2.05;1.58;;;7.70;47.30;;;;;;4874205;29;20046;-83
2022/03/13 05:43:52;;;;;;;3.42;2.08;;;7.80;47.30;;;;;;4862651;29;20427;-90
2022/03/13 05:46:19;;;;;;;2.70;1.85;;;7.80;47.30;;;;;;4900904;29;20036;-85
2022/03/13 05:48:45;;;;;;;2.40;2.20;;;7.80;47.40;;;;;;4900888;29;20151;-84
2022/03/13 05:51:11;;;;;;;2.55;2.15;;;7.80;47.40;;;;;;4897367;29;20282;-83
2022/03/13 05:53:36;;;;;;;3.83;2.50;;;7.80;47.40;;;;;;4900602;29;20037;-82
2022/03/13 05:56:03;;;;;;;3.20;2.50;;;7.80;47.40;;;;;;4918095;29;20044;-80
2022/03/13 05:58:29;;;;;;;3.85;2.60;;;7.80;47.40;;;;;;4905952;29;20060;-83
2022/03/13 06:01:04;;;;;;;3.97;2.95;;;7.80;47.30;;;;;;4903521;28;20070;-85
2022/03/13 06:03:30;;;;;;;4.25;2.70;;;7.80;47.40;;;;;;4892509;29;20032;-80
2022/03/13 06:05:57;;;;;;;4.38;2.33;;;7.80;47.30;;;;;;4898482;29;20033;-82
2022/03/13 06:08:23;;;;;;;6.20;3.13;;;7.70;47.10;;;;;;4901259;29;20048;-82
2022/03/13 06:10:51;;;;;;;4.15;2.65;;;7.70;47.20;;;;;;4920116;29;20036;-85
2022/03/13 06:13:18;;;;;;;5.00;2.38;;;7.70;47.20;;;;;;4896113;29;20075;-82
2022/03/13 06:15:44;;;;;;;4.47;2.88;;;7.70;47.10;;;;;;4904910;29;20051;-81
2022/03/13 06:18:11;;;;;;;3.28;2.70;;;7.80;47.20;;;;;;4931713;29;20051;-82
2022/03/13 06:20:37;;;;;;;5.20;2.40;;;7.80;47.20;;;;;;4905163;29;20173;-84
2022/03/13 06:23:03;;;;;;;4.90;2.90;;;7.80;47.10;;;;;;4900874;29;20483;-81
2022/03/13 06:25:29;;;;;;;4.10;2.58;;;7.70;47.20;;;;;;4899354;29;20040;-78
2022/03/13 06:27:56;;;;;;;4.38;2.88;;;7.80;47.30;;;;;;4900993;29;20397;-90
2022/03/13 06:30:22;;;;;;;4.80;2.67;;;7.80;47.30;;;;;;4901171;29;20043;-84
2022/03/13 06:32:50;;;;;;;3.72;2.83;;;7.80;47.30;;;;;;4897760;29;20048;-81
2022/03/13 06:35:18;;;;;;;4.60;2.72;;;7.80;47.30;;;;;;4914301;29;20727;-81
2022/03/13 06:37:46;;;;;;;4.72;3.20;;;7.80;47.40;;;;;;4899888;28;20044;-82
2022/03/13 06:40:13;;;;;;;5.28;3.13;;;7.80;47.40;;;;;;4900481;29;20076;-81
2022/03/13 06:42:39;;;;;;;3.80;2.83;;;7.80;47.40;;;;;;4899960;29;20123;-82
2022/03/13 06:45:09;;;;;;;4.72;3.13;;;7.70;47.40;;;;;;4898964;29;20133;-79
2022/03/13 06:47:34;;;;;;;5.47;3.42;;;7.80;47.60;;;;;;4898293;29;20049;-79
2022/03/13 06:50:00;;;;;;;5.93;3.30;;;7.80;47.50;;;;;;4899996;29;20385;-80
2022/03/13 06:52:26;;;;;;;5.40;3.33;;;7.80;47.50;;;;;;4898832;29;20032;-78
2022/03/13 06:54:52;;;;;;;5.05;3.47;;;7.80;47.60;;;;;;4898506;29;20365;-78
2022/03/13 06:57:20;;;;;;;4.70;3.15;;;7.80;47.60;;;;;;4898584;29;20048;-78
2022/03/13 06:59:46;;;;;;;5.75;3.35;;;7.80;47.70;;;;;;4929159;29;20043;-79
2022/03/13 07:02:13;;;;;;;6.25;3.33;;;7.80;47.70;;;;;;4902199;29;20132;-80
2022/03/13 07:04:39;;;;;;;5.05;3.20;;;7.80;47.70;;;;;;4897995;29;20051;-80
2022/03/13 07:07:07;;;;;;;4.53;3.20;;;7.90;47.70;;;;;;4897696;28;20119;-78
2022/03/13 07:09:34;;;;;;;4.65;3.05;;;7.90;47.70;;;;;;4900291;29;20043;-78
2022/03/13 07:12:00;;;;;;;4.38;3.30;;;7.90;47.60;;;;;;4899571;29;20605;-80
2022/03/13 07:14:26;;;;;;;6.65;3.55;;;7.90;47.60;;;;;;4896977;29;20047;-80
2022/03/13 07:16:53;;;;;;;5.50;3.33;;;8.00;47.50;;;;;;4897851;29;20037;-79
2022/03/13 07:19:20;;;;;;;5.75;3.78;;;8.00;47.50;;;;;;4898578;29;20496;-79
2022/03/13 07:21:46;;;;;;;7.43;3.45;;;8.00;47.60;;;;;;4899203;29;20535;-79
2022/03/13 07:24:12;;;;;;;5.65;3.65;;;8.00;47.60;;;;;;4899477;29;20530;-79
2022/03/13 07:26:37;;;;;;;10.52;3.42;;;8.10;47.70;;;;;;4881039;29;20075;-83
2022/03/13 07:29:03;;;;;;;5.32;3.08;;;8.10;47.60;;;;;;4898333;29;20413;-81
2022/03/13 07:31:30;;;;;;;10.82;4.30;;;8.10;48.10;;;;;;4899635;29;20516;-81
2022/03/13 07:33:57;;;;;;;7.25;4.05;;;8.20;49.60;;;;;;4913091;29;20079;-81
2022/03/13 07:36:23;;;;;;;5.55;4.05;;;8.20;49.50;;;;;;4900782;29;20036;-80
2022/03/13 07:38:49;;;;;;;7.85;4.50;;;8.20;49.10;;;;;;4914379;28;20139;-79
2022/03/13 07:41:20;;;;;;;7.68;4.35;;;8.30;48.90;;;;;;4899372;29;20060;-77
2022/03/13 07:43:45;;;;;;;8.05;4.53;;;8.30;48.70;;;;;;4899167;29;20148;-79
2022/03/13 07:46:11;;;;;;;7.47;4.25;;;8.30;48.50;;;;;;4899888;29;20079;-78
2022/03/13 07:48:38;;;;;;;6.88;4.28;;;8.40;48.40;;;;;;4914053;29;20523;-79
2022/03/13 07:51:05;;;;;;;6.95;4.60;;;8.40;48.10;;;;;;4928777;29;20040;-79
2022/03/13 07:53:31;;;;;;;5.90;4.40;;;8.40;48.10;;;;;;4914087;29;20036;-79
2022/03/13 07:55:58;;;;;;;6.15;4.15;;;8.40;48.00;;;;;;4899196;28;20081;-78
2022/03/13 07:58:24;;;;;;;7.03;4.28;;;8.40;47.90;;;;;;4914373;29;20490;-80
2022/03/13 08:00:50;;;;;;;5.88;3.75;;;8.40;48.10;;;;;;4899157;29;20419;-80
2022/03/13 08:03:28;;;;;;;8.65;3.30;;;8.50;49.00;;;;;;4881427;29;20044;-80
2022/03/13 08:05:54;;;;;;;8.35;3.58;;;8.50;50.00;;;;;;4901718;29;20083;-79
2022/03/13 08:08:20;;;;;;;6.28;3.53;;;8.60;51.10;;;;;;4902604;29;20048;-78
2022/03/13 08:10:46;;;;;;;5.35;3.38;;;8.60;51.90;;;;;;4898830;29;20042;-80
2022/03/13 08:13:12;;;;;;;8.90;3.17;;;8.60;52.40;;;;;;4900261;29;20084;-79
2022/03/13 08:15:38;;;;;;;5.72;3.58;;;8.60;52.60;;;;;;4899797;29;20029;-79
2022/03/13 08:18:04;;;;;;;5.97;2.95;;;8.70;52.80;;;;;;4899958;29;20044;-80
2022/03/13 08:20:30;;;;;;;9.77;3.38;;;8.70;52.90;;;;;;4930325;29;20036;-80
2022/03/13 08:22:56;;;;;;;11.60;3.35;;;8.70;52.90;;;;;;4930088;29;20051;-80
2022/03/13 08:25:24;;;;;;;7.97;2.85;;;8.80;53.00;;;;;;4899731;29;20460;-80
2022/03/13 08:27:50;;;;;;;4.63;2.90;;;8.80;53.00;;;;;;4903762;29;20298;-79
2022/03/13 08:30:16;;;;;;;5.07;3.17;;;8.90;53.10;;;;;;4917445;29;20065;-79
2022/03/13 08:32:43;;;;;;;4.57;2.83;;;8.90;53.00;;;;;;4903355;29;20587;-80
2022/03/13 08:35:09;;;;;;;4.65;3.10;;;8.90;53.10;;;;;;4903277;29;20131;-80
2022/03/13 08:37:36;;;;;;;5.60;2.80;;;9.00;53.10;;;;;;4917828;29;20048;-79
2022/03/13 08:40:06;;;;;;;4.78;2.92;;;9.00;53.20;;;;;;4917761;29;20044;-80
2022/03/13 08:42:32;;;;;;;3.92;2.80;;;9.00;53.10;;;;;;4902586;29;20032;-79
2022/03/13 08:44:59;;;;;;;3.90;2.65;;;9.10;53.20;;;;;;4933694;28;20028;-80
2022/03/13 08:47:26;;;;;;;4.80;2.63;;;9.10;53.10;;;;;;4917415;29;20036;-79
2022/03/13 08:49:53;;;;;;;3.97;2.70;;;9.10;53.10;;;;;;4906185;29;20086;-78
2022/03/13 08:52:19;;;;;;;4.38;2.83;;;9.20;53.20;;;;;;4903610;29;20526;-80
2022/03/13 08:54:45;;;;;;;4.40;2.58;;;9.20;53.10;;;;;;4901379;29;20033;-80
2022/03/13 08:57:12;;;;;;;4.53;2.90;;;9.20;53.40;;;;;;4902057;29;20056;-79
2022/03/13 08:59:38;;;;;;;4.95;2.85;;;9.30;53.40;;;;;;4934391;28;20093;-79
2022/03/13 09:02:05;;;;;;;5.35;2.90;;;9.30;53.20;;;;;;4903677;29;20175;-79
2022/03/13 09:04:32;;;;;;;5.47;3.08;;;9.40;53.30;;;;;;4934397;28;20036;-79
2022/03/13 09:06:58;;;;;;;4.15;2.53;;;9.40;53.30;;;;;;4918348;29;20032;-80
2022/03/13 09:09:25;;;;;;;6.22;2.72;;;9.40;53.50;;;;;;4921627;29;20467;-78
2022/03/13 09:11:51;;;;;;;3.67;2.60;;;9.40;53.50;;;;;;4918087;29;20496;-79
2022/03/13 09:14:18;;;;;;;4.88;2.35;;;9.40;53.40;;;;;;4905228;29;20048;-78
2022/03/13 09:16:44;;;;;;;3.33;2.80;;;9.50;53.50;;;;;;4901191;29;20036;-78
2022/03/13 09:19:10;;;;;;;4.90;3.25;;;9.50;53.50;;;;;;4899606;28;20055;-80
2022/03/13 09:21:39;;;;;;;4.30;2.90;;;9.60;53.50;;;;;;4903211;29;20500;-80
2022/03/13 09:24:07;;;;;;;3.65;2.75;;;9.60;53.50;;;;;;4903286;28;20067;-80
2022/03/13 09:26:37;;;;;;;4.25;3.00;;;9.70;53.50;;;;;;4901606;29;20428;-78
2022/03/13 09:29:04;;;;;;;4.88;3.30;;;9.70;53.60;;;;;;4894331;29;20048;-79
2022/03/13 09:31:31;;;;;;;6.40;2.95;;;9.70;53.30;;;;;;4902462;29;20070;-77
2022/03/13 09:33:56;;;;;;;5.05;2.97;;;9.80;53.30;;;;;;4901481;29;21117;-79
2022/03/13 09:36:24;;;;;;;5.38;2.92;;;9.80;53.30;;;;;;4901257;29;20099;-79
2022/03/13 09:38:50;;;;;;;4.18;2.58;;;9.90;53.30;;;;;;4901506;29;20044;-79
2022/03/13 09:41:17;;;;;;;4.13;2.78;;;9.90;53.30;;;;;;4902126;29;20096;-80
2022/03/13 09:43:43;;;;;;;3.55;2.80;;;9.90;53.20;;;;;;4914876;28;20178;-80
2022/03/13 09:46:09;;;;;;;3.60;2.42;;;10.00;53.40;;;;;;4931947;29;20028;-83
2022/03/13 09:48:36;;;;;;;4.20;2.40;;;10.00;53.50;;;;;;4902731;29;20048;-80
2022/03/13 09:51:04;;;;;;;5.28;2.80;;;10.00;53.40;;;;;;4905834;29;20047;-81
2022/03/13 09:53:34;;;;;;;4.82;2.60;;;10.00;53.50;;;;;;4905904;29;20028;-80
2022/03/13 09:56:03;;;;;;;6.05;3.20;;;10.00;53.40;;;;;;4892931;29;20078;-80
2022/03/13 09:58:30;;;;;;;4.55;2.63;;;10.00;53.40;;;;;;4913912;29;20051;-82
2022/03/13 10:00:59;;;;;;;6.13;3.13;;;10.10;53.20;;;;;;4902538;29;20087;-80
2022/03/13 10:03:26;;;;;;;6.18;3.00;;;10.10;53.10;;;;;;4919314;29;20392;-79
2022/03/13 10:05:55;;;;;;;6.05;2.90;;;10.20;53.00;;;;;;4926784;28;20036;-81
2022/03/13 10:08:30;;;;;;;4.47;3.22;;;10.10;52.80;;;;;;4925339;28;20044;-79
2022/03/13 10:10:56;;;;;;;4.50;3.03;;;10.20;52.60;;;;;;4893474;29;20044;-81
2022/03/13 10:13:39;;;;;;;3.80;2.67;;;10.20;52.40;;;;;;4920438;29;20033;-81
2022/03/13 10:16:06;;;;;;;4.47;3.05;;;10.20;52.50;;;;;;4909469;28;20034;-80
2022/03/13 10:18:33;;;;;;;4.78;2.90;;;10.20;52.50;;;;;;4905751;29;20036;-80
2022/03/13 10:21:12;;;;;;;4.90;2.70;;;10.20;52.40;;;;;;4932736;28;20043;-79
2022/03/13 10:23:40;;;;;;;5.60;3.17;;;10.20;52.40;;;;;;4904944;29;20511;-80
2022/03/13 10:26:06;;;;;;;12.23;3.92;;;10.20;52.20;;;;;;4900804;28;20110;-79
2022/03/13 10:28:34;;;;;;;9.30;4.03;;;10.20;52.30;;;;;;4915505;29;20074;-80
2022/03/13 10:31:00;;;;;;;9.75;4.10;;;10.20;52.30;;;;;;4884873;29;20028;-80
2022/03/13 10:33:42;;;;;;;10.05;4.20;;;10.30;52.50;;;;;;4916653;29;20028;-80
2022/03/13 10:36:10;;;;;;;10.63;4.70;;;10.30;52.60;;;;;;4914902;29;20044;-82
2022/03/13 10:38:37;;;;;;;11.73;4.57;;;10.30;52.70;;;;;;4899731;29;20124;-80
2022/03/13 10:41:08;;;;;;;9.20;4.68;;;10.30;53.20;;;;;;4897673;29;20048;-81
2022/03/13 10:43:39;;;;;;;14.98;5.55;;;10.30;53.50;;;;;;4916566;28;20029;-82
2022/03/13 10:46:05;;;;;;;11.82;4.18;;;10.40;53.70;;;;;;4914549;29;20091;-82
2022/03/13 10:48:37;;;;;;;10.13;4.57;;;10.40;53.60;;;;;;4904585;29;20040;-81
2022/03/13 10:51:04;;;;;;;11.00;4.30;;;10.40;53.80;;;;;;4899389;29;20036;-82
2022/03/13 10:53:32;;;;;;;10.98;4.28;;;10.40;54.10;;;;;;4900039;29;20512;-82
2022/03/13 10:56:07;;;;;;;9.10;4.18;;;10.40;54.10;;;;;;4914806;29;20040;-82
2022/03/13 10:58:45;;;;;;;10.90;4.68;;;10.40;54.40;;;;;;4916923;29;20047;-82
2022/03/13 11:01:13;;;;;;;8.43;4.72;;;10.50;54.70;;;;;;4931555;29;20028;-82
2022/03/13 11:03:56;;;;;;;8.18;3.90;;;10.50;54.80;;;;;;4902942;29;20029;-82
2022/03/13 11:06:24;;;;;;;11.55;4.78;;;10.50;54.90;;;;;;4931534;29;20127;-81
2022/03/13 11:08:55;;;;;;;9.85;4.65;;;10.50;55.20;;;;;;4931536;29;20039;-83
2022/03/13 11:11:27;;;;;;;9.00;4.60;;;10.50;55.50;;;;;;4884148;29;20040;-83
2022/03/13 11:13:56;;;;;;;11.95;4.15;;;10.50;55.70;;;;;;4889290;29;20078;-82
2022/03/13 11:16:24;;;;;;;9.40;4.28;;;10.60;55.80;;;;;;4945877;29;20043;-81
2022/03/13 11:18:53;;;;;;;9.05;4.10;;;10.60;55.80;;;;;;4920247;29;20099;-82
2022/03/13 11:21:20;;;;;;;8.25;4.40;;;10.60;55.60;;;;;;4949346;29;20048;-82
2022/03/13 11:23:46;;;;;;;8.20;4.18;;;10.60;55.80;;;;;;4885968;29;20051;-81
2022/03/13 11:26:18;;;;;;;9.40;3.88;;;10.60;55.80;;;;;;4899451;29;20037;-80
2022/03/13 11:28:46;;;;;;;6.15;3.40;;;10.60;55.80;;;;;;4900363;29;20051;-80
2022/03/13 11:31:40;;;;;;;9.93;4.03;;;10.60;55.50;;;;;;4900299;29;20044;-82
2022/03/13 11:34:18;;;;;;;8.60;3.90;;;10.60;55.30;;;;;;4900282;29;20040;-81
2022/03/13 11:36:49;;;;;;;7.47;4.03;;;10.60;55.20;;;;;;4915190;29;20040;-80
2022/03/13 11:39:30;;;;;;;8.63;4.03;;;10.70;55.10;;;;;;4899448;29;20131;-81
2022/03/13 11:41:56;;;;;;;5.93;3.35;;;10.70;54.70;;;;;;4900616;29;20397;-81
2022/03/13 11:44:22;;;;;;;6.10;3.22;;;10.70;54.60;;;;;;4898704;29;20076;-81
2022/03/13 11:46:50;;;;;;;6.80;3.38;;;10.70;54.40;;;;;;4900546;29;20124;-80
2022/03/13 11:49:33;;;;;;;8.30;4.05;;;10.70;54.50;;;;;;4915544;28;20131;-81
2022/03/13 11:52:20;;;;;;;;;;;10.70;54.40;;;;;;4899859;29;20036;-80
2022/03/13 11:57:14;;;;;;;4.88;3.55;;;10.80;54.20;;;;;;4914112;28;20060;-80
2022/03/13 11:59:40;;;;;;;6.47;3.53;;;10.80;54.20;;;;;;4893133;29;20044;-81
2022/03/13 12:02:10;;;;;;;4.47;3.22;;;10.80;54.00;;;;;;4933671;28;20138;-81
2022/03/13 12:04:36;;;;;;;5.32;3.20;;;10.80;54.10;;;;;;4908189;28;20492;-81
2022/03/13 12:07:06;;;;;;;5.20;3.00;;;10.90;54.10;;;;;;4895065;29;20416;-80
2022/03/13 12:09:41;;;;;;;6.22;3.47;;;10.90;53.90;;;;;;4879871;29;20091;-81
2022/03/13 12:12:10;;;;;;;6.57;3.08;;;10.90;53.80;;;;;;4896060;29;20043;-80
2022/03/13 12:15:05;;;;;;;6.65;3.50;;;11.00;53.80;;;;;;4901954;29;20525;-80
2022/03/13 12:17:44;;;;;;;6.43;3.72;;;10.90;53.80;;;;;;4879430;29;20045;-79
2022/03/13 12:20:24;;;;;;;8.35;3.67;;;10.90;53.80;;;;;;4896440;29;20055;-81
2022/03/13 12:22:53;;;;;;;6.82;3.40;;;10.90;53.80;;;;;;4900996;29;20131;-80
2022/03/13 12:25:32;;;;;;;8.02;3.88;;;11.00;53.90;;;;;;4904835;29;20033;-80
2022/03/13 12:28:01;;;;;;;8.43;4.03;;;11.00;53.90;;;;;;4884409;28;20504;-80
2022/03/13 12:30:29;;;;;;;7.47;4.43;;;11.00;53.80;;;;;;4900398;29;20036;-79
2022/03/13 12:33:04;;;;;;;5.13;3.60;;;11.00;53.90;;;;;;4900655;28;20032;-81
2022/03/13 12:35:31;;;;;;;6.28;4.00;;;11.00;53.70;;;;;;4900627;28;20041;-78
2022/03/13 12:38:02;;;;;;;5.85;3.90;;;11.00;53.70;;;;;;4898474;29;20047;-81
2022/03/13 12:40:30;;;;;;;6.18;3.63;;;11.00;53.70;;;;;;4881963;29;20052;-80
2022/03/13 12:42:59;;;;;;;6.85;3.95;;;11.00;53.70;;;;;;4898873;29;20044;-80
2022/03/13 12:45:26;;;;;;;7.03;3.90;;;11.00;53.60;;;;;;4899868;29;20092;-81
2022/03/13 12:47:54;;;;;;;6.63;3.65;;;11.00;53.50;;;;;;4904000;29;20051;-81
2022/03/13 12:50:24;;;;;;;4.78;3.70;;;11.00;53.40;;;;;;4913543;28;20104;-81
2022/03/13 12:53:20;;;;;;;5.43;3.45;;;11.00;53.30;;;;;;4907328;29;20401;-80
2022/03/13 12:55:53;;;;;;;6.63;3.60;;;11.00;53.40;;;;;;4900367;29;20039;-82
2022/03/13 12:58:19;;;;;;;6.65;3.92;;;11.00;53.30;;;;;;4899910;29;20043;-81
2022/03/13 13:00:46;;;;;;;5.45;3.47;;;11.00;53.30;;;;;;4900159;29;20128;-79
2022/03/13 13:03:13;;;;;;;6.32;3.85;;;11.10;53.30;;;;;;4895828;29;20604;-81